createdAt,value
2023-01-26T00:02:27.193Z,9.57
2023-01-26T00:04:55.487Z,9.59
2023-01-26T00:07:25.848Z,9.55
2023-01-26T00:09:57.470Z,9.59
2023-01-26T00:12:29.421Z,9.55
2023-01-26T00:14:57.404Z,9.59
2023-01-26T00:17:28.606Z,9.61
2023-01-26T00:19:59.099Z,9.60
2023-01-26T00:22:27.923Z,9.62
2023-01-26T00:24:56.211Z,9.65
2023-01-26T00:27:36.848Z,9.68
2023-01-26T00:30:05.387Z,9.71
2023-01-26T00:32:33.356Z,9.67
2023-01-26T00:35:01.467Z,9.64
2023-01-26T00:37:30.432Z,9.65
2023-01-26T00:40:20.288Z,9.67
2023-01-26T00:42:49.778Z,9.63
2023-01-26T00:45:19.530Z,9.59
2023-01-26T00:47:47.628Z,9.63
2023-01-26T00:50:44.632Z,9.63
2023-01-26T00:53:12.675Z,9.59
2023-01-26T00:55:40.614Z,9.54
2023-01-26T00:58:10.166Z,9.53
2023-01-26T01:00:38.976Z,9.52
2023-01-26T01:03:12.737Z,9.49
2023-01-26T01:05:41.312Z,9.46
2023-01-26T01:12:52.764Z,9.29
2023-01-26T01:19:55.849Z,9.33
2023-01-26T01:22:23.992Z,9.38
2023-01-26T01:24:54.601Z,9.40
2023-01-26T01:27:26.969Z,9.41
2023-01-26T01:29:55.672Z,9.42
2023-01-26T01:32:27.639Z,9.46
2023-01-26T01:34:57.135Z,9.44
2023-01-26T01:37:25.134Z,9.41
2023-01-26T01:39:53.162Z,9.27
2023-01-26T01:42:21.337Z,9.29
2023-01-26T01:45:05.090Z,9.22
2023-01-26T01:47:33.545Z,9.22
2023-01-26T01:50:05.324Z,9.27
2023-01-26T01:52:33.331Z,9.28
2023-01-26T01:55:07.288Z,9.27
2023-01-26T01:57:45.071Z,9.28
2023-01-26T02:00:15.167Z,9.30
2023-01-26T02:02:43.375Z,9.18
2023-01-26T02:05:31.254Z,9.30
2023-01-26T02:08:01.684Z,9.26
2023-01-26T02:10:29.954Z,9.24
2023-01-26T02:13:00.783Z,9.22
2023-01-26T02:15:28.881Z,9.25
2023-01-26T02:18:12.210Z,9.25
2023-01-26T02:20:45.280Z,9.05
2023-01-26T02:23:31.121Z,9.23
2023-01-26T02:26:19.196Z,9.23
2023-01-26T02:28:47.727Z,9.17
2023-01-26T02:31:18.140Z,9.22
2023-01-26T02:33:51.113Z,9.23
2023-01-26T02:36:21.036Z,9.26
2023-01-26T02:38:59.524Z,9.25
2023-01-26T02:41:46.855Z,9.29
2023-01-26T02:44:15.544Z,9.35
2023-01-26T02:46:59.492Z,9.41
2023-01-26T02:49:45.430Z,9.39
2023-01-26T02:52:16.436Z,9.43
2023-01-26T02:55:04.648Z,9.41
2023-01-26T02:57:35.442Z,9.33
2023-01-26T03:00:03.809Z,9.36
2023-01-26T03:02:32.295Z,9.33
2023-01-26T03:05:00.417Z,9.34
2023-01-26T03:07:28.596Z,9.37
2023-01-26T03:09:58.792Z,9.39
2023-01-26T03:12:27.042Z,9.34
2023-01-26T03:15:15.091Z,9.42
2023-01-26T03:17:43.522Z,9.29
2023-01-26T03:20:29.800Z,9.48
2023-01-26T03:23:11.907Z,9.47
2023-01-26T03:25:57.848Z,9.52
2023-01-26T03:28:30.993Z,9.50
2023-01-26T03:31:02.933Z,9.52
2023-01-26T03:33:32.483Z,9.51
2023-01-26T03:36:01.220Z,9.35
2023-01-26T03:38:33.819Z,9.48
2023-01-26T03:41:19.055Z,9.42
2023-01-26T03:44:04.413Z,9.46
2023-01-26T03:46:53.534Z,9.41
2023-01-26T03:49:39.612Z,9.43
2023-01-26T03:52:25.801Z,9.40
2023-01-26T03:55:11.072Z,9.35
2023-01-26T03:57:39.145Z,9.40
2023-01-26T04:00:08.474Z,9.38
2023-01-26T04:03:15.218Z,9.43
2023-01-26T04:06:15.476Z,9.30
2023-01-26T04:08:48.126Z,9.36
2023-01-26T04:11:18.763Z,9.38
2023-01-26T04:14:04.945Z,9.36
2023-01-26T04:16:52.780Z,9.36
2023-01-26T04:19:41.345Z,9.21
2023-01-26T04:22:09.504Z,9.28
2023-01-26T04:24:38.777Z,9.33
2023-01-26T04:27:10.980Z,9.31
2023-01-26T04:29:42.017Z,9.28
2023-01-26T04:32:10.134Z,9.33
2023-01-26T04:34:42.212Z,9.36
2023-01-26T04:37:20.023Z,9.33
2023-01-26T04:39:49.520Z,9.24
2023-01-26T04:42:18.393Z,9.20
2023-01-26T04:44:46.670Z,9.32
2023-01-26T04:47:15.320Z,9.29
2023-01-26T04:49:52.765Z,9.28
2023-01-26T04:52:23.533Z,9.27
2023-01-26T04:54:51.755Z,9.16
2023-01-26T04:57:20.714Z,9.16
2023-01-26T04:59:51.231Z,9.08
2023-01-26T05:02:21.286Z,9.11
2023-01-26T05:04:51.068Z,9.04
2023-01-26T05:07:19.659Z,9.07
2023-01-26T05:09:48.374Z,9.06
2023-01-26T05:12:34.623Z,9.09
2023-01-26T05:15:21.338Z,9.04
2023-01-26T05:18:12.530Z,9.08
2023-01-26T05:21:05.129Z,9.01
2023-01-26T05:23:40.500Z,9.05
2023-01-26T05:26:42.497Z,9.05
2023-01-26T05:29:20.598Z,9.02
2023-01-26T05:31:48.754Z,9.11
2023-01-26T05:34:16.784Z,9.08
2023-01-26T05:36:56.341Z,9.10
2023-01-26T05:39:25.530Z,9.16
2023-01-26T05:41:55.994Z,9.17
2023-01-26T05:44:50.194Z,9.13
2023-01-26T05:47:25.999Z,9.11
2023-01-26T05:49:54.098Z,9.08
2023-01-26T05:52:27.925Z,9.06
2023-01-26T05:54:56.271Z,8.97
2023-01-26T05:57:25.378Z,8.99
2023-01-26T05:59:58.133Z,9.00
2023-01-26T06:02:28.097Z,8.85
2023-01-26T06:04:59.718Z,8.97
2023-01-26T06:07:29.233Z,8.85
2023-01-26T06:10:26.762Z,8.94
2023-01-26T06:13:22.245Z,8.94
2023-01-26T06:16:08.983Z,8.92
2023-01-26T06:18:37.993Z,8.93
2023-01-26T06:21:06.995Z,8.96
2023-01-26T06:23:36.612Z,8.98
2023-01-26T06:26:09.431Z,9.06
2023-01-26T06:28:39.264Z,9.06
2023-01-26T06:31:10.717Z,9.12
2023-01-26T06:33:39.978Z,9.14
2023-01-26T06:36:10.963Z,9.13
2023-01-26T06:38:41.139Z,8.97
2023-01-26T06:41:09.187Z,9.19
2023-01-26T06:43:46.684Z,9.14
2023-01-26T06:46:16.777Z,9.07
2023-01-26T06:48:46.253Z,9.12
2023-01-26T06:51:42.268Z,9.12
2023-01-26T06:54:13.401Z,9.02
2023-01-26T06:57:02.510Z,9.06
2023-01-26T07:00:01.008Z,9.05
2023-01-26T07:02:40.649Z,9.04
2023-01-26T07:05:10.212Z,9.05
2023-01-26T07:07:39.475Z,9.05
2023-01-26T07:10:10.631Z,9.01
2023-01-26T07:12:40.283Z,9.02
2023-01-26T07:15:09.518Z,8.99
2023-01-26T07:17:44.898Z,8.98
2023-01-26T07:20:16.227Z,8.98
2023-01-26T07:22:46.855Z,9.00
2023-01-26T07:25:16.556Z,8.99
2023-01-26T07:27:44.647Z,8.98
2023-01-26T07:30:14.307Z,8.99
2023-01-26T07:32:42.988Z,9.01
2023-01-26T07:35:10.982Z,9.06
2023-01-26T07:37:40.090Z,9.02
2023-01-26T07:40:10.595Z,9.03
2023-01-26T07:42:40.242Z,9.00
2023-01-26T07:45:19.893Z,9.02
2023-01-26T07:47:48.122Z,9.08
2023-01-26T07:50:16.558Z,9.04
2023-01-26T07:52:44.984Z,9.07
2023-01-26T07:55:12.962Z,9.09
2023-01-26T07:57:42.539Z,9.11
2023-01-26T08:00:12.507Z,9.12
2023-01-26T08:02:41.870Z,9.06
2023-01-26T08:05:10.567Z,9.06
2023-01-26T08:07:38.890Z,9.05
2023-01-26T08:10:12.775Z,9.06
2023-01-26T08:12:42.522Z,9.06
2023-01-26T08:15:11.691Z,9.08
2023-01-26T08:17:39.786Z,9.06
2023-01-26T08:20:08.956Z,9.13
2023-01-26T08:22:37.859Z,9.14
2023-01-26T08:25:09.061Z,9.16
2023-01-26T08:27:37.139Z,9.17
2023-01-26T08:30:07.990Z,9.20
2023-01-26T08:32:36.301Z,9.22
2023-01-26T08:35:04.319Z,9.15
2023-01-26T08:37:32.350Z,9.15
2023-01-26T08:40:01.624Z,9.22
2023-01-26T08:42:31.837Z,9.24
2023-01-26T08:45:01.006Z,9.25
2023-01-26T08:47:33.546Z,9.26
2023-01-26T08:50:04.039Z,9.28
2023-01-26T08:52:33.631Z,9.30
2023-01-26T08:55:01.810Z,9.35
2023-01-26T08:57:38.767Z,9.42
2023-01-26T09:00:07.872Z,9.46
2023-01-26T09:02:38.064Z,9.50
2023-01-26T09:05:07.128Z,9.50
2023-01-26T09:07:36.110Z,9.57
2023-01-26T09:10:04.535Z,9.62
2023-01-26T09:12:32.669Z,9.66
2023-01-26T09:15:03.298Z,9.68
2023-01-26T09:17:34.816Z,9.77
2023-01-26T09:20:04.595Z,9.81
2023-01-26T09:22:35.275Z,9.77
2023-01-26T09:25:03.640Z,9.87
2023-01-26T09:27:35.266Z,9.87
2023-01-26T09:30:03.552Z,9.97
2023-01-26T09:32:31.766Z,10.03
2023-01-26T09:35:02.520Z,9.99
2023-01-26T09:37:32.000Z,10.15
2023-01-26T09:40:00.063Z,10.08
2023-01-26T09:42:33.912Z,10.22
2023-01-26T09:45:10.675Z,10.28
2023-01-26T09:47:46.411Z,10.30
2023-01-26T09:50:15.592Z,10.31
2023-01-26T09:52:51.227Z,10.41
2023-01-26T09:55:21.329Z,10.47
2023-01-26T09:57:50.373Z,10.51
2023-01-26T10:00:22.761Z,10.61
2023-01-26T10:02:56.885Z,10.59
2023-01-26T10:05:32.250Z,10.68
2023-01-26T10:08:11.726Z,10.74
2023-01-26T10:10:41.580Z,10.80
2023-01-26T10:13:10.702Z,10.84
2023-01-26T10:15:40.221Z,10.84
2023-01-26T10:18:09.174Z,10.81
2023-01-26T10:20:38.339Z,10.92
2023-01-26T10:23:08.001Z,10.97
2023-01-26T10:25:38.580Z,10.92
2023-01-26T10:28:13.374Z,11.04
2023-01-26T10:30:43.911Z,11.10
2023-01-26T10:33:16.802Z,11.05
2023-01-26T10:35:45.151Z,11.08
2023-01-26T10:38:43.657Z,11.19
2023-01-26T10:41:29.586Z,11.23
2023-01-26T10:44:05.764Z,11.19
2023-01-26T10:46:38.043Z,11.21
2023-01-26T10:49:15.946Z,11.31
2023-01-26T10:51:47.804Z,11.17
2023-01-26T10:54:23.705Z,11.40
2023-01-26T10:56:57.192Z,11.35
2023-01-26T10:59:31.500Z,11.41
2023-01-26T11:02:01.909Z,11.46
2023-01-26T11:04:30.847Z,11.46
2023-01-26T11:07:26.448Z,11.49
2023-01-26T11:09:54.955Z,11.54
2023-01-26T11:12:27.236Z,11.58
2023-01-26T11:17:58.714Z,11.65
2023-01-26T11:20:39.306Z,11.69
2023-01-26T11:23:11.409Z,11.72
2023-01-26T11:25:49.080Z,11.79
2023-01-26T11:28:29.266Z,11.78
2023-01-26T11:31:10.240Z,11.84
2023-01-26T11:33:43.193Z,11.76
2023-01-26T11:36:25.223Z,11.86
2023-01-26T11:38:56.828Z,11.90
2023-01-26T11:41:29.420Z,11.93
2023-01-26T11:44:29.920Z,11.95
2023-01-26T11:47:13.986Z,11.98
2023-01-26T11:50:05.373Z,11.89
2023-01-26T11:52:37.063Z,11.89
2023-01-26T11:55:16.177Z,11.88
2023-01-26T11:57:47.714Z,11.94
2023-01-26T12:00:29.625Z,12.01
2023-01-26T12:03:02.703Z,11.94
2023-01-26T12:05:32.551Z,12.10
2023-01-26T12:08:02.630Z,12.05
2023-01-26T12:10:31.811Z,12.16
2023-01-26T12:13:02.968Z,12.10
2023-01-26T12:15:36.719Z,12.22
2023-01-26T12:18:09.059Z,12.25
2023-01-26T12:20:41.611Z,12.18
2023-01-26T12:23:14.239Z,12.27
2023-01-26T12:25:43.161Z,12.28
2023-01-26T12:28:24.217Z,12.30
2023-01-26T12:31:01.220Z,12.27
2023-01-26T12:33:32.762Z,12.28
2023-01-26T12:36:19.874Z,12.36
2023-01-26T12:39:12.201Z,12.29
2023-01-26T12:41:49.300Z,12.49
2023-01-26T12:44:25.768Z,12.52
2023-01-26T12:47:00.070Z,12.63
2023-01-26T12:49:30.223Z,12.70
2023-01-26T12:52:10.218Z,12.72
2023-01-26T12:54:42.722Z,12.77
2023-01-26T12:57:15.300Z,12.84
2023-01-26T12:59:47.651Z,12.89
2023-01-26T13:02:29.497Z,12.93
2023-01-26T13:04:58.356Z,12.92
2023-01-26T13:07:44.978Z,12.86
2023-01-26T13:10:47.460Z,12.81
2023-01-26T13:13:29.630Z,12.74
2023-01-26T13:16:32.585Z,12.73
2023-01-26T13:19:02.226Z,12.59
2023-01-26T13:21:30.951Z,12.67
2023-01-26T13:24:01.381Z,12.58
2023-01-26T13:26:52.694Z,12.58
2023-01-26T13:29:33.023Z,12.49
2023-01-26T13:32:08.524Z,12.56
2023-01-26T13:34:38.520Z,12.56
2023-01-26T13:37:11.111Z,12.53
2023-01-26T13:39:40.863Z,12.51
2023-01-26T13:42:17.473Z,12.64
2023-01-26T13:44:49.902Z,12.52
2023-01-26T13:47:27.594Z,12.65
2023-01-26T13:49:57.209Z,12.66
2023-01-26T13:52:33.864Z,12.52
2023-01-26T13:55:04.651Z,12.63
2023-01-26T13:57:33.530Z,12.51
2023-01-26T14:00:01.904Z,12.58
2023-01-26T14:02:35.947Z,12.56
2023-01-26T14:05:08.667Z,12.58
2023-01-26T14:07:38.020Z,12.60
2023-01-26T14:10:07.100Z,12.57
2023-01-26T14:12:36.142Z,12.54
2023-01-26T14:15:05.580Z,12.48
2023-01-26T14:17:36.660Z,12.50
2023-01-26T14:20:19.675Z,12.52
2023-01-26T14:22:48.523Z,12.63
2023-01-26T14:25:21.343Z,12.67
2023-01-26T14:27:49.689Z,12.79
2023-01-26T14:33:12.659Z,12.84
2023-01-26T14:35:43.411Z,12.84
2023-01-26T14:38:15.921Z,12.80
2023-01-26T14:40:46.976Z,12.83
2023-01-26T14:43:15.181Z,12.80
2023-01-26T14:45:45.089Z,12.80
2023-01-26T14:48:15.118Z,12.88
2023-01-26T14:50:49.489Z,12.87
2023-01-26T14:53:18.742Z,12.87
2023-01-26T14:55:49.527Z,12.89
2023-01-26T14:58:22.948Z,12.95
2023-01-26T15:00:54.715Z,12.99
2023-01-26T15:03:26.737Z,12.94
2023-01-26T15:06:20.499Z,12.93
2023-01-26T15:08:59.652Z,12.95
2023-01-26T15:11:52.568Z,12.83
2023-01-26T15:14:35.713Z,12.83
2023-01-26T15:17:03.767Z,12.80
2023-01-26T15:19:41.005Z,12.79
2023-01-26T15:22:22.062Z,12.64
2023-01-26T15:25:01.282Z,12.68
2023-01-26T15:27:34.118Z,12.73
2023-01-26T15:30:02.388Z,12.63
2023-01-26T15:32:32.246Z,12.63
2023-01-26T15:35:24.884Z,12.68
2023-01-26T15:38:02.691Z,12.63
2023-01-26T15:40:30.888Z,12.61
2023-01-26T15:43:14.803Z,12.60
2023-01-26T15:45:44.615Z,12.55
2023-01-26T15:48:14.568Z,12.39
2023-01-26T15:50:42.668Z,12.51
2023-01-26T15:53:14.300Z,12.45
2023-01-26T15:55:46.883Z,12.48
2023-01-26T15:58:14.906Z,12.41
2023-01-26T16:00:43.077Z,12.39
2023-01-26T16:03:14.929Z,12.35
2023-01-26T16:05:44.263Z,12.34
2023-01-26T16:08:12.246Z,12.34
2023-01-26T16:10:41.771Z,12.30
2023-01-26T16:13:10.476Z,12.28
2023-01-26T16:15:42.306Z,12.25
2023-01-26T16:18:11.806Z,12.30
2023-01-26T16:20:40.432Z,12.29
2023-01-26T16:23:14.320Z,12.27
2023-01-26T16:25:46.572Z,12.27
2023-01-26T16:28:14.744Z,12.29
2023-01-26T16:30:48.479Z,12.31
2023-01-26T16:33:18.572Z,12.33
2023-01-26T16:35:46.590Z,12.36
2023-01-26T16:38:14.727Z,12.33
2023-01-26T16:40:46.112Z,12.34
2023-01-26T16:43:16.231Z,12.20
2023-01-26T16:45:44.292Z,12.33
2023-01-26T16:48:13.364Z,12.33
2023-01-26T16:50:42.879Z,12.23
2023-01-26T16:53:17.842Z,12.32
2023-01-26T16:55:49.845Z,12.31
2023-01-26T16:58:17.975Z,12.34
2023-01-26T17:00:46.037Z,12.34
2023-01-26T17:03:14.210Z,12.30
2023-01-26T17:05:42.393Z,12.24
2023-01-26T17:08:14.122Z,12.29
2023-01-26T17:10:59.570Z,12.29
2023-01-26T17:13:33.250Z,12.23
2023-01-26T17:16:01.523Z,12.27
2023-01-26T17:18:29.838Z,12.24
2023-01-26T17:21:05.923Z,12.08
2023-01-26T17:23:34.462Z,12.21
2023-01-26T17:26:02.415Z,12.20
2023-01-26T17:28:30.602Z,12.22
2023-01-26T17:31:02.421Z,12.25
2023-01-26T17:33:30.972Z,12.21
2023-01-26T17:36:05.719Z,12.19
2023-01-26T17:38:33.856Z,12.18
2023-01-26T17:41:02.149Z,12.19
2023-01-26T17:43:30.767Z,12.15
2023-01-26T17:46:08.508Z,12.13
2023-01-26T17:48:37.576Z,12.08
2023-01-26T17:51:08.800Z,12.06
2023-01-26T17:53:40.162Z,12.08
2023-01-26T17:56:16.025Z,12.10
2023-01-26T17:58:44.018Z,12.09
2023-01-26T18:01:13.700Z,12.03
2023-01-26T18:03:42.443Z,12.09
2023-01-26T18:06:10.548Z,12.08
2023-01-26T18:08:38.896Z,12.07
2023-01-26T18:11:10.565Z,11.86
2023-01-26T18:13:41.797Z,12.01
2023-01-26T18:16:10.896Z,11.94
2023-01-26T18:18:42.540Z,11.94
2023-01-26T18:21:12.867Z,11.85
2023-01-26T18:23:40.923Z,11.88
2023-01-26T18:26:08.913Z,11.86
2023-01-26T18:28:37.294Z,11.76
2023-01-26T18:31:12.269Z,11.79
2023-01-26T18:33:42.482Z,11.76
2023-01-26T18:36:12.508Z,11.76
2023-01-26T18:38:40.637Z,11.77
2023-01-26T18:41:11.140Z,11.77
2023-01-26T18:43:39.201Z,11.75
2023-01-26T18:46:11.118Z,11.76
2023-01-26T18:48:41.690Z,11.74
2023-01-26T18:51:11.950Z,11.69
2023-01-26T18:53:40.207Z,11.65
2023-01-26T18:56:09.394Z,11.59
2023-01-26T18:58:37.575Z,11.54
2023-01-26T19:01:13.656Z,11.65
2023-01-26T19:03:47.241Z,11.69
2023-01-26T19:06:19.872Z,11.70
2023-01-26T19:08:48.955Z,11.61
2023-01-26T19:11:18.188Z,11.77
2023-01-26T19:13:50.823Z,11.78
2023-01-26T19:16:18.928Z,11.80
2023-01-26T19:18:46.997Z,11.81
2023-01-26T19:21:17.147Z,11.77
2023-01-26T19:23:45.291Z,11.85
2023-01-26T19:26:13.684Z,11.80
2023-01-26T19:28:55.914Z,11.85
2023-01-26T19:31:41.259Z,11.88
2023-01-26T19:37:03.010Z,11.65
2023-01-26T19:39:31.303Z,11.86
2023-01-26T19:41:59.322Z,11.80
2023-01-26T19:44:27.575Z,11.89
2023-01-26T19:47:03.545Z,11.89
2023-01-26T19:49:35.097Z,11.88
2023-01-26T19:52:04.912Z,11.89
2023-01-26T19:54:33.162Z,11.88
2023-01-26T19:57:01.176Z,11.91
2023-01-26T19:59:29.237Z,11.89
2023-01-26T20:01:57.278Z,11.86
2023-01-26T20:04:32.729Z,11.86
2023-01-26T20:07:05.378Z,11.90
2023-01-26T20:09:36.939Z,11.80
2023-01-26T20:12:06.958Z,11.86
2023-01-26T20:14:36.269Z,11.80
2023-01-26T20:17:04.325Z,11.84
2023-01-26T20:19:34.831Z,11.83
2023-01-26T20:22:05.296Z,11.83
2023-01-26T20:24:33.564Z,11.81
2023-01-26T20:27:02.959Z,11.77
2023-01-26T20:29:31.285Z,11.75
2023-01-26T20:31:59.307Z,11.71
2023-01-26T20:34:28.112Z,11.70
2023-01-26T20:37:00.371Z,11.71
2023-01-26T20:39:28.696Z,11.69
2023-01-26T20:41:56.833Z,11.70
2023-01-26T20:44:26.270Z,11.69
2023-01-26T20:46:56.354Z,11.50
2023-01-26T20:49:24.464Z,11.52
2023-01-26T20:51:54.541Z,11.50
2023-01-26T20:54:23.854Z,11.47
2023-01-26T20:56:52.370Z,11.42
2023-01-26T20:59:27.779Z,11.48
2023-01-26T21:01:57.278Z,11.48
2023-01-26T21:04:25.248Z,11.40
2023-01-26T21:06:54.273Z,11.42
2023-01-26T21:09:22.649Z,11.45
2023-01-26T21:11:53.303Z,11.39
2023-01-26T21:14:21.322Z,11.21
2023-01-26T21:16:52.437Z,11.37
2023-01-26T21:19:25.249Z,11.37
2023-01-26T21:21:53.774Z,11.38
2023-01-26T21:24:23.247Z,11.37
2023-01-26T21:26:52.165Z,11.33
2023-01-26T21:29:21.538Z,11.27
2023-01-26T21:31:52.172Z,11.38
2023-01-26T21:34:24.012Z,11.39
2023-01-26T21:36:52.056Z,11.40
2023-01-26T21:39:22.130Z,11.41
2023-01-26T21:42:00.865Z,11.39
2023-01-26T21:44:29.696Z,11.35
2023-01-26T21:46:58.552Z,11.23
2023-01-26T21:49:28.508Z,11.28
2023-01-26T21:52:14.235Z,11.24
2023-01-26T21:54:42.340Z,11.26
2023-01-26T21:57:25.023Z,11.18
2023-01-26T21:59:54.763Z,11.20
2023-01-26T22:02:23.728Z,11.28
2023-01-26T22:04:53.409Z,11.28
2023-01-26T22:07:21.389Z,11.24
2023-01-26T22:09:49.431Z,11.28
2023-01-26T22:12:18.215Z,11.38
2023-01-26T22:14:46.241Z,11.41
2023-01-26T22:17:14.260Z,11.35
2023-01-26T22:19:42.403Z,11.52
2023-01-26T22:22:13.809Z,11.53
2023-01-26T22:24:42.009Z,11.55
2023-01-26T22:27:09.934Z,11.57
2023-01-26T22:29:37.963Z,11.56
2023-01-26T22:32:06.685Z,11.60
2023-01-26T22:34:37.519Z,11.55
2023-01-26T22:37:06.051Z,11.62
2023-01-26T22:39:35.397Z,11.57
2023-01-26T22:42:03.657Z,11.64
2023-01-26T22:44:31.607Z,11.65
2023-01-26T22:46:59.680Z,11.49
2023-01-26T22:49:30.854Z,11.48
2023-01-26T22:52:08.193Z,11.40
2023-01-26T22:54:40.310Z,11.60
2023-01-26T22:57:08.317Z,11.61
2023-01-26T22:59:36.337Z,11.59
2023-01-26T23:02:04.496Z,11.54
2023-01-26T23:04:32.546Z,11.48
2023-01-26T23:07:01.708Z,11.47
2023-01-26T23:09:29.785Z,11.44
2023-01-26T23:12:02.643Z,11.38
2023-01-26T23:14:34.174Z,11.33
2023-01-26T23:17:02.262Z,11.31
2023-01-26T23:19:30.659Z,11.26
2023-01-26T23:21:58.617Z,11.22
2023-01-26T23:24:26.697Z,11.02
2023-01-26T23:26:54.782Z,11.04
2023-01-26T23:29:24.164Z,11.10
2023-01-26T23:31:52.294Z,11.08
2023-01-26T23:34:20.981Z,11.01
2023-01-26T23:37:10.717Z,10.96
2023-01-26T23:39:38.993Z,10.85
2023-01-26T23:42:07.663Z,10.81
2023-01-26T23:44:37.079Z,10.73
2023-01-26T23:47:08.321Z,10.64
2023-01-26T23:49:36.415Z,10.46
2023-01-26T23:56:47.726Z,10.24
